sensor_id;sensor_type;location;lat;lon;timestamp;P1;durP1;ratioP1;P2;durP2;ratioP2
20884;SDS011;10602;48.000;9.654;2023-04-25T06:29:51;3.43;;;2.20;;
20884;SDS011;10602;48.000;9.654;2023-04-25T06:32:19;3.27;;;2.33;;
20884;SDS011;10602;48.000;9.654;2023-04-25T06:34:46;3.80;;;2.60;;
20884;SDS011;10602;48.000;9.654;2023-04-25T06:37:14;4.83;;;3.10;;
20884;SDS011;10602;48.000;9.654;2023-04-25T06:39:41;3.97;;;2.23;;
20884;SDS011;10602;48.000;9.654;2023-04-25T06:42:09;4.13;;;2.47;;
20884;SDS011;10602;48.000;9.654;2023-04-25T06:44:36;5.47;;;2.53;;
20884;SDS011;10602;48.000;9.654;2023-04-25T06:47:04;3.90;;;2.00;;
20884;SDS011;10602;48.000;9.654;2023-04-25T06:49:31;5.33;;;2.80;;
20884;SDS011;10602;48.000;9.654;2023-04-25T06:51:59;3.43;;;2.47;;
20884;SDS011;10602;48.000;9.654;2023-04-25T06:54:26;3.70;;;2.73;;
20884;SDS011;10602;48.000;9.654;2023-04-25T06:56:55;5.37;;;2.37;;
20884;SDS011;10602;48.000;9.654;2023-04-25T06:59:23;3.27;;;2.30;;
20884;SDS011;10602;48.000;9.654;2023-04-25T07:01:51;4.07;;;2.73;;
20884;SDS011;10602;48.000;9.654;2023-04-25T07:04:18;3.20;;;2.57;;
20884;SDS011;10602;48.000;9.654;2023-04-25T07:06:46;2.80;;;2.27;;
20884;SDS011;10602;48.000;9.654;2023-04-25T07:09:15;3.67;;;2.40;;
20884;SDS011;10602;48.000;9.654;2023-04-25T07:11:43;3.87;;;2.43;;
20884;SDS011;10602;48.000;9.654;2023-04-25T07:14:10;3.77;;;2.30;;
20884;SDS011;10602;48.000;9.654;2023-04-25T07:16:38;4.53;;;2.53;;
20884;SDS011;10602;48.000;9.654;2023-04-25T07:19:08;3.67;;;2.30;;
20884;SDS011;10602;48.000;9.654;2023-04-25T07:21:38;3.67;;;2.20;;
20884;SDS011;10602;48.000;9.654;2023-04-25T07:24:05;3.73;;;2.40;;
20884;SDS011;10602;48.000;9.654;2023-04-25T07:26:33;2.97;;;2.10;;
20884;SDS011;10602;48.000;9.654;2023-04-25T07:29:01;4.23;;;2.10;;
20884;SDS011;10602;48.000;9.654;2023-04-25T07:31:28;4.43;;;2.00;;
20884;SDS011;10602;48.000;9.654;2023-04-25T07:33:56;2.73;;;1.87;;
20884;SDS011;10602;48.000;9.654;2023-04-25T07:36:24;3.73;;;2.30;;
20884;SDS011;10602;48.000;9.654;2023-04-25T07:38:52;3.37;;;1.90;;
20884;SDS011;10602;48.000;9.654;2023-04-25T07:41:19;3.87;;;2.50;;
20884;SDS011;10602;48.000;9.654;2023-04-25T07:43:47;3.70;;;2.43;;
20884;SDS011;10602;48.000;9.654;2023-04-25T07:46:15;3.53;;;2.10;;
20884;SDS011;10602;48.000;9.654;2023-04-25T07:48:42;6.57;;;2.30;;
20884;SDS011;10602;48.000;9.654;2023-04-25T07:51:10;4.50;;;2.17;;
20884;SDS011;10602;48.000;9.654;2023-04-25T07:53:37;2.67;;;2.20;;
20884;SDS011;10602;48.000;9.654;2023-04-25T07:56:06;6.43;;;2.43;;
20884;SDS011;10602;48.000;9.654;2023-04-25T07:58:34;3.70;;;2.10;;
20884;SDS011;10602;48.000;9.654;2023-04-25T08:01:02;3.47;;;1.90;;
20884;SDS011;10602;48.000;9.654;2023-04-25T08:03:30;2.50;;;2.10;;
20884;SDS011;10602;48.000;9.654;2023-04-25T08:05:57;3.10;;;2.30;;
20884;SDS011;10602;48.000;9.654;2023-04-25T08:08:25;2.97;;;2.20;;
20884;SDS011;10602;48.000;9.654;2023-04-25T08:10:52;5.63;;;2.27;;
20884;SDS011;10602;48.000;9.654;2023-04-25T08:13:20;2.70;;;2.13;;
20884;SDS011;10602;48.000;9.654;2023-04-25T08:15:47;2.67;;;2.33;;
20884;SDS011;10602;48.000;9.654;2023-04-25T08:18:15;3.60;;;2.00;;
20884;SDS011;10602;48.000;9.654;2023-04-25T08:20:42;3.40;;;2.27;;
20884;SDS011;10602;48.000;9.654;2023-04-25T08:23:10;3.17;;;2.47;;
20884;SDS011;10602;48.000;9.654;2023-04-25T08:25:37;7.73;;;2.30;;
20884;SDS011;10602;48.000;9.654;2023-04-25T08:28:05;3.80;;;2.33;;
20884;SDS011;10602;48.000;9.654;2023-04-25T08:30:32;5.37;;;2.40;;
20884;SDS011;10602;48.000;9.654;2023-04-25T08:33:00;3.87;;;2.60;;
20884;SDS011;10602;48.000;9.654;2023-04-25T08:35:28;3.40;;;2.13;;
20884;SDS011;10602;48.000;9.654;2023-04-25T08:37:56;3.87;;;2.13;;
20884;SDS011;10602;48.000;9.654;2023-04-25T08:40:23;5.33;;;2.50;;
20884;SDS011;10602;48.000;9.654;2023-04-25T08:42:56;4.07;;;2.40;;
20884;SDS011;10602;48.000;9.654;2023-04-25T08:45:26;2.63;;;2.17;;
20884;SDS011;10602;48.000;9.654;2023-04-25T08:47:55;3.77;;;2.10;;
20884;SDS011;10602;48.000;9.654;2023-04-25T08:50:25;3.60;;;2.10;;
20884;SDS011;10602;48.000;9.654;2023-04-25T08:52:53;2.83;;;2.30;;
20884;SDS011;10602;48.000;9.654;2023-04-25T08:55:21;2.90;;;2.40;;
20884;SDS011;10602;48.000;9.654;2023-04-25T08:57:49;2.50;;;1.80;;
20884;SDS011;10602;48.000;9.654;2023-04-25T09:00:16;1.60;;;1.50;;
20884;SDS011;10602;48.000;9.654;2023-04-25T09:02:44;4.80;;;2.10;;
20884;SDS011;10602;48.000;9.654;2023-04-25T09:05:16;1.47;;;1.37;;
20884;SDS011;10602;48.000;9.654;2023-04-25T09:07:40;1.97;;;1.70;;
20884;SDS011;10602;48.000;9.654;2023-04-25T09:10:08;2.17;;;1.83;;
20884;SDS011;10602;48.000;9.654;2023-04-25T09:12:35;2.83;;;2.07;;
20884;SDS011;10602;48.000;9.654;2023-04-25T09:15:04;1.70;;;1.60;;
20884;SDS011;10602;48.000;9.654;2023-04-25T09:17:32;2.07;;;1.40;;
20884;SDS011;10602;48.000;9.654;2023-04-25T09:20:09;1.53;;;1.20;;
20884;SDS011;10602;48.000;9.654;2023-04-25T09:22:28;1.73;;;1.27;;
20884;SDS011;10602;48.000;9.654;2023-04-25T09:24:56;1.00;;;1.00;;
20884;SDS011;10602;48.000;9.654;2023-04-25T09:27:23;0.83;;;0.83;;
20884;SDS011;10602;48.000;9.654;2023-04-25T09:29:58;0.90;;;0.90;;
20884;SDS011;10602;48.000;9.654;2023-04-25T09:32:29;0.80;;;0.80;;
20884;SDS011;10602;48.000;9.654;2023-04-25T09:34:56;1.17;;;1.03;;
20884;SDS011;10602;48.000;9.654;2023-04-25T09:37:27;1.03;;;0.97;;
20884;SDS011;10602;48.000;9.654;2023-04-25T09:39:55;9.53;;;5.30;;
20884;SDS011;10602;48.000;9.654;2023-04-25T09:42:23;6.07;;;4.03;;
20884;SDS011;10602;48.000;9.654;2023-04-25T09:44:52;5.80;;;3.67;;
20884;SDS011;10602;48.000;9.654;2023-04-25T09:47:20;4.77;;;3.37;;
20884;SDS011;10602;48.000;9.654;2023-04-25T09:49:50;4.43;;;3.90;;
20884;SDS011;10602;48.000;9.654;2023-04-25T09:52:18;3.27;;;2.60;;
20884;SDS011;10602;48.000;9.654;2023-04-25T09:54:46;2.40;;;2.20;;
20884;SDS011;10602;48.000;9.654;2023-04-25T09:57:15;1.50;;;1.40;;
20884;SDS011;10602;48.000;9.654;2023-04-25T09:59:43;8.93;;;4.50;;
20884;SDS011;10602;48.000;9.654;2023-04-25T10:02:11;1.40;;;1.30;;
20884;SDS011;10602;48.000;9.654;2023-04-25T10:04:38;3.43;;;2.13;;
20884;SDS011;10602;48.000;9.654;2023-04-25T10:07:06;1.40;;;1.30;;
20884;SDS011;10602;48.000;9.654;2023-04-25T10:09:36;1.60;;;1.50;;
20884;SDS011;10602;48.000;9.654;2023-04-25T10:12:03;1.90;;;1.80;;
20884;SDS011;10602;48.000;9.654;2023-04-25T10:14:31;1.50;;;1.40;;
20884;SDS011;10602;48.000;9.654;2023-04-25T10:16:58;2.10;;;1.90;;
20884;SDS011;10602;48.000;9.654;2023-04-25T10:19:27;1.27;;;1.10;;
20884;SDS011;10602;48.000;9.654;2023-04-25T10:24:32;1.70;;;1.60;;
20884;SDS011;10602;48.000;9.654;2023-04-25T10:27:00;1.30;;;1.20;;
20884;SDS011;10602;48.000;9.654;2023-04-25T10:29:28;2.27;;;1.53;;
20884;SDS011;10602;48.000;9.654;2023-04-25T10:31:55;3.13;;;2.17;;
20884;SDS011;10602;48.000;9.654;2023-04-25T10:34:24;2.20;;;1.70;;
20884;SDS011;10602;48.000;9.654;2023-04-25T10:36:52;1.40;;;1.30;;
20884;SDS011;10602;48.000;9.654;2023-04-25T10:39:23;1.30;;;1.20;;
20884;SDS011;10602;48.000;9.654;2023-04-25T10:41:57;1.10;;;1.00;;
20884;SDS011;10602;48.000;9.654;2023-04-25T10:44:27;1.40;;;1.30;;
20884;SDS011;10602;48.000;9.654;2023-04-25T10:46:56;1.37;;;1.27;;
20884;SDS011;10602;48.000;9.654;2023-04-25T10:49:30;1.43;;;1.20;;
20884;SDS011;10602;48.000;9.654;2023-04-25T10:54:48;1.30;;;1.20;;
20884;SDS011;10602;48.000;9.654;2023-04-25T10:57:36;1.50;;;1.40;;
20884;SDS011;10602;48.000;9.654;2023-04-25T11:00:10;1.50;;;1.40;;
20884;SDS011;10602;48.000;9.654;2023-04-25T11:02:51;3.23;;;2.80;;
20884;SDS011;10602;48.000;9.654;2023-04-25T11:05:19;2.20;;;2.00;;
20884;SDS011;10602;48.000;9.654;2023-04-25T20:05:55;2.83;;;2.40;;
20884;SDS011;10602;48.000;9.654;2023-04-25T20:08:24;3.47;;;2.47;;
20884;SDS011;10602;48.000;9.654;2023-04-25T20:10:51;2.10;;;1.90;;
20884;SDS011;10602;48.000;9.654;2023-04-25T20:13:19;3.80;;;2.30;;
20884;SDS011;10602;48.000;9.654;2023-04-25T20:15:46;2.73;;;2.00;;
20884;SDS011;10602;48.000;9.654;2023-04-25T20:18:14;2.43;;;2.13;;
20884;SDS011;10602;48.000;9.654;2023-04-25T20:20:41;2.40;;;1.93;;
20884;SDS011;10602;48.000;9.654;2023-04-25T20:23:09;3.10;;;2.30;;
20884;SDS011;10602;48.000;9.654;2023-04-25T20:25:37;2.20;;;2.00;;
20884;SDS011;10602;48.000;9.654;2023-04-25T20:28:04;2.67;;;2.10;;
20884;SDS011;10602;48.000;9.654;2023-04-25T20:30:32;4.50;;;2.20;;
20884;SDS011;10602;48.000;9.654;2023-04-25T20:32:59;2.20;;;2.00;;
20884;SDS011;10602;48.000;9.654;2023-04-25T20:35:27;3.07;;;2.00;;
20884;SDS011;10602;48.000;9.654;2023-04-25T20:37:56;2.50;;;2.30;;
20884;SDS011;10602;48.000;9.654;2023-04-25T20:40:25;2.90;;;2.20;;
20884;SDS011;10602;48.000;9.654;2023-04-25T20:42:57;2.50;;;2.30;;
20884;SDS011;10602;48.000;9.654;2023-04-25T20:45:26;3.23;;;2.60;;
20884;SDS011;10602;48.000;9.654;2023-04-25T20:47:55;2.63;;;2.33;;
20884;SDS011;10602;48.000;9.654;2023-04-25T20:50:23;3.47;;;3.10;;
20884;SDS011;10602;48.000;9.654;2023-04-25T20:52:51;4.33;;;2.90;;
20884;SDS011;10602;48.000;9.654;2023-04-25T20:55:19;4.17;;;2.90;;
20884;SDS011;10602;48.000;9.654;2023-04-25T20:57:46;2.67;;;2.40;;
20884;SDS011;10602;48.000;9.654;2023-04-25T21:00:14;5.67;;;3.90;;
20884;SDS011;10602;48.000;9.654;2023-04-25T21:02:44;16.47;;;9.07;;
20884;SDS011;10602;48.000;9.654;2023-04-25T21:05:11;12.60;;;8.63;;
20884;SDS011;10602;48.000;9.654;2023-04-25T21:07:39;5.20;;;4.70;;
20884;SDS011;10602;48.000;9.654;2023-04-25T21:10:07;4.57;;;4.10;;
20884;SDS011;10602;48.000;9.654;2023-04-25T21:12:35;3.33;;;3.00;;
20884;SDS011;10602;48.000;9.654;2023-04-25T21:15:02;3.77;;;3.17;;
20884;SDS011;10602;48.000;9.654;2023-04-25T21:17:33;3.33;;;2.90;;
20884;SDS011;10602;48.000;9.654;2023-04-25T21:20:01;3.50;;;2.80;;
20884;SDS011;10602;48.000;9.654;2023-04-25T21:22:30;3.17;;;2.90;;
20884;SDS011;10602;48.000;9.654;2023-04-25T21:24:59;3.47;;;2.60;;
20884;SDS011;10602;48.000;9.654;2023-04-25T21:27:28;3.13;;;2.77;;
20884;SDS011;10602;48.000;9.654;2023-04-25T21:29:55;3.30;;;2.90;;
20884;SDS011;10602;48.000;9.654;2023-04-25T21:32:23;3.30;;;2.90;;
20884;SDS011;10602;48.000;9.654;2023-04-25T21:34:51;4.00;;;3.00;;
20884;SDS011;10602;48.000;9.654;2023-04-25T21:37:18;3.13;;;2.70;;
20884;SDS011;10602;48.000;9.654;2023-04-25T21:39:46;2.73;;;2.53;;
20884;SDS011;10602;48.000;9.654;2023-04-25T21:42:13;3.37;;;3.07;;
20884;SDS011;10602;48.000;9.654;2023-04-25T21:44:41;4.07;;;3.17;;
20884;SDS011;10602;48.000;9.654;2023-04-25T21:47:08;3.23;;;2.93;;
20884;SDS011;10602;48.000;9.654;2023-04-25T21:49:36;3.20;;;2.90;;
20884;SDS011;10602;48.000;9.654;2023-04-25T21:52:03;3.43;;;3.13;;
20884;SDS011;10602;48.000;9.654;2023-04-25T21:54:32;3.00;;;2.70;;
20884;SDS011;10602;48.000;9.654;2023-04-25T21:57:01;3.23;;;2.93;;
20884;SDS011;10602;48.000;9.654;2023-04-25T21:59:28;3.60;;;3.03;;
20884;SDS011;10602;48.000;9.654;2023-04-25T22:01:57;3.63;;;2.90;;
20884;SDS011;10602;48.000;9.654;2023-04-25T22:04:25;3.20;;;2.90;;
20884;SDS011;10602;48.000;9.654;2023-04-25T22:06:52;3.10;;;2.80;;
20884;SDS011;10602;48.000;9.654;2023-04-25T22:09:20;4.10;;;3.00;;
20884;SDS011;10602;48.000;9.654;2023-04-25T22:11:48;3.17;;;2.87;;
20884;SDS011;10602;48.000;9.654;2023-04-25T22:14:18;3.13;;;2.83;;
20884;SDS011;10602;48.000;9.654;2023-04-25T22:16:49;3.03;;;2.73;;
20884;SDS011;10602;48.000;9.654;2023-04-25T22:19:19;3.37;;;3.00;;
20884;SDS011;10602;48.000;9.654;2023-04-25T22:21:46;3.53;;;3.00;;
20884;SDS011;10602;48.000;9.654;2023-04-25T22:24:14;3.90;;;3.13;;
20884;SDS011;10602;48.000;9.654;2023-04-25T22:26:42;3.90;;;3.30;;
20884;SDS011;10602;48.000;9.654;2023-04-25T22:29:09;3.13;;;2.70;;
20884;SDS011;10602;48.000;9.654;2023-04-25T22:31:37;3.20;;;2.90;;
20884;SDS011;10602;48.000;9.654;2023-04-25T22:34:04;3.37;;;2.70;;
20884;SDS011;10602;48.000;9.654;2023-04-25T22:36:32;3.47;;;3.17;;
20884;SDS011;10602;48.000;9.654;2023-04-25T22:39:00;3.70;;;3.33;;
20884;SDS011;10602;48.000;9.654;2023-04-25T22:41:27;3.60;;;3.17;;
20884;SDS011;10602;48.000;9.654;2023-04-25T22:43:55;3.53;;;3.07;;
20884;SDS011;10602;48.000;9.654;2023-04-25T22:46:23;3.27;;;2.77;;
20884;SDS011;10602;48.000;9.654;2023-04-25T22:48:50;3.30;;;3.00;;
20884;SDS011;10602;48.000;9.654;2023-04-25T22:51:18;3.37;;;3.07;;
20884;SDS011;10602;48.000;9.654;2023-04-25T22:53:46;5.10;;;3.47;;
20884;SDS011;10602;48.000;9.654;2023-04-25T22:56:18;4.60;;;3.03;;
20884;SDS011;10602;48.000;9.654;2023-04-25T22:58:43;4.13;;;3.00;;
20884;SDS011;10602;48.000;9.654;2023-04-25T23:01:10;6.47;;;4.07;;
20884;SDS011;10602;48.000;9.654;2023-04-25T23:03:38;5.33;;;4.50;;
20884;SDS011;10602;48.000;9.654;2023-04-25T23:06:06;6.03;;;5.17;;
